sensor_id;sensor_type;location;lat;lon;timestamp;P1;durP1;ratioP1;P2;durP2;ratioP2
73859;SDS011;62197;51.632;13.700;2023-05-07T00:00:08;20.85;;;11.23;;
73859;SDS011;62197;51.632;13.700;2023-05-07T00:02:34;20.88;;;11.85;;
73859;SDS011;62197;51.632;13.700;2023-05-07T00:04:59;22.52;;;10.95;;
73859;SDS011;62197;51.632;13.700;2023-05-07T00:07:25;17.65;;;10.32;;
73859;SDS011;62197;51.632;13.700;2023-05-07T00:09:50;17.58;;;9.65;;
73859;SDS011;62197;51.632;13.700;2023-05-07T00:14:40;18.93;;;9.33;;
73859;SDS011;62197;51.632;13.700;2023-05-07T00:19:31;16.10;;;9.85;;
73859;SDS011;62197;51.632;13.700;2023-05-07T00:21:57;17.95;;;9.32;;
73859;SDS011;62197;51.632;13.700;2023-05-07T00:26:48;17.30;;;9.77;;
73859;SDS011;62197;51.632;13.700;2023-05-07T00:29:14;20.50;;;10.68;;
73859;SDS011;62197;51.632;13.700;2023-05-07T00:31:39;15.25;;;10.38;;
73859;SDS011;62197;51.632;13.700;2023-05-07T00:34:04;13.15;;;9.40;;
73859;SDS011;62197;51.632;13.700;2023-05-07T00:38:56;14.27;;;8.27;;
73859;SDS011;62197;51.632;13.700;2023-05-07T00:41:23;12.82;;;7.70;;
73859;SDS011;62197;51.632;13.700;2023-05-07T00:43:49;13.57;;;8.90;;
73859;SDS011;62197;51.632;13.700;2023-05-07T00:46:16;15.30;;;7.95;;
73859;SDS011;62197;51.632;13.700;2023-05-07T00:48:42;15.00;;;8.93;;
73859;SDS011;62197;51.632;13.700;2023-05-07T00:51:07;14.05;;;8.25;;
73859;SDS011;62197;51.632;13.700;2023-05-07T00:53:34;12.55;;;8.27;;
73859;SDS011;62197;51.632;13.700;2023-05-07T00:55:59;16.77;;;8.93;;
73859;SDS011;62197;51.632;13.700;2023-05-07T00:58:25;16.48;;;9.93;;
73859;SDS011;62197;51.632;13.700;2023-05-07T01:00:51;15.90;;;9.98;;
73859;SDS011;62197;51.632;13.700;2023-05-07T01:03:17;20.25;;;10.68;;
73859;SDS011;62197;51.632;13.700;2023-05-07T01:05:42;14.45;;;8.25;;
73859;SDS011;62197;51.632;13.700;2023-05-07T01:08:09;11.27;;;7.82;;
73859;SDS011;62197;51.632;13.700;2023-05-07T01:10:35;14.43;;;7.93;;
73859;SDS011;62197;51.632;13.700;2023-05-07T01:13:01;12.43;;;8.88;;
73859;SDS011;62197;51.632;13.700;2023-05-07T01:15:26;13.25;;;8.10;;
73859;SDS011;62197;51.632;13.700;2023-05-07T01:17:52;11.98;;;7.78;;
73859;SDS011;62197;51.632;13.700;2023-05-07T01:20:18;13.68;;;8.43;;
73859;SDS011;62197;51.632;13.700;2023-05-07T01:22:43;13.38;;;7.57;;
73859;SDS011;62197;51.632;13.700;2023-05-07T01:27:35;16.57;;;7.23;;
73859;SDS011;62197;51.632;13.700;2023-05-07T01:30:02;11.77;;;7.55;;
73859;SDS011;62197;51.632;13.700;2023-05-07T01:35:05;15.90;;;8.95;;
73859;SDS011;62197;51.632;13.700;2023-05-07T01:37:35;14.20;;;8.65;;
73859;SDS011;62197;51.632;13.700;2023-05-07T01:40:01;17.10;;;9.07;;
73859;SDS011;62197;51.632;13.700;2023-05-07T01:42:28;14.90;;;8.90;;
73859;SDS011;62197;51.632;13.700;2023-05-07T01:44:54;15.23;;;8.15;;
73859;SDS011;62197;51.632;13.700;2023-05-07T01:47:20;15.05;;;8.55;;
73859;SDS011;62197;51.632;13.700;2023-05-07T01:49:46;14.07;;;8.35;;
73859;SDS011;62197;51.632;13.700;2023-05-07T01:52:11;14.52;;;7.88;;
73859;SDS011;62197;51.632;13.700;2023-05-07T01:54:38;14.23;;;8.75;;
73859;SDS011;62197;51.632;13.700;2023-05-07T01:57:03;13.43;;;7.70;;
73859;SDS011;62197;51.632;13.700;2023-05-07T01:59:28;13.30;;;8.25;;
73859;SDS011;62197;51.632;13.700;2023-05-07T02:01:54;11.27;;;7.38;;
73859;SDS011;62197;51.632;13.700;2023-05-07T02:04:19;11.95;;;8.15;;
73859;SDS011;62197;51.632;13.700;2023-05-07T02:09:10;9.90;;;6.30;;
73859;SDS011;62197;51.632;13.700;2023-05-07T02:11:36;9.02;;;5.72;;
73859;SDS011;62197;51.632;13.700;2023-05-07T02:14:02;7.80;;;5.68;;
73859;SDS011;62197;51.632;13.700;2023-05-07T02:18:52;10.53;;;6.23;;
73859;SDS011;62197;51.632;13.700;2023-05-07T02:21:17;10.10;;;5.95;;
73859;SDS011;62197;51.632;13.700;2023-05-07T02:23:43;9.13;;;5.88;;
73859;SDS011;62197;51.632;13.700;2023-05-07T02:26:08;9.05;;;5.40;;
73859;SDS011;62197;51.632;13.700;2023-05-07T02:28:35;7.90;;;5.60;;
73859;SDS011;62197;51.632;13.700;2023-05-07T02:31:04;8.20;;;5.68;;
73859;SDS011;62197;51.632;13.700;2023-05-07T02:33:29;6.60;;;4.88;;
73859;SDS011;62197;51.632;13.700;2023-05-07T02:35:55;7.18;;;4.97;;
73859;SDS011;62197;51.632;13.700;2023-05-07T02:40:46;7.47;;;5.22;;
73859;SDS011;62197;51.632;13.700;2023-05-07T02:43:11;7.45;;;4.07;;
73859;SDS011;62197;51.632;13.700;2023-05-07T02:45:37;5.97;;;4.53;;
73859;SDS011;62197;51.632;13.700;2023-05-07T02:50:28;8.63;;;4.47;;
73859;SDS011;62197;51.632;13.700;2023-05-07T02:52:53;6.88;;;4.90;;
73859;SDS011;62197;51.632;13.700;2023-05-07T02:55:18;6.90;;;4.07;;
73859;SDS011;62197;51.632;13.700;2023-05-07T02:57:44;8.45;;;4.88;;
73859;SDS011;62197;51.632;13.700;2023-05-07T03:00:10;7.70;;;4.45;;
73859;SDS011;62197;51.632;13.700;2023-05-07T03:02:39;5.60;;;4.22;;
73859;SDS011;62197;51.632;13.700;2023-05-07T03:05:04;6.65;;;4.63;;
73859;SDS011;62197;51.632;13.700;2023-05-07T03:07:30;6.00;;;4.55;;
73859;SDS011;62197;51.632;13.700;2023-05-07T03:09:55;7.55;;;5.05;;
73859;SDS011;62197;51.632;13.700;2023-05-07T03:14:46;8.53;;;5.07;;
73859;SDS011;62197;51.632;13.700;2023-05-07T03:17:11;8.13;;;4.97;;
73859;SDS011;62197;51.632;13.700;2023-05-07T03:19:37;8.13;;;4.90;;
73859;SDS011;62197;51.632;13.700;2023-05-07T03:22:02;8.43;;;5.05;;
73859;SDS011;62197;51.632;13.700;2023-05-07T03:24:27;7.10;;;4.85;;
73859;SDS011;62197;51.632;13.700;2023-05-07T03:26:53;7.85;;;5.38;;
73859;SDS011;62197;51.632;13.700;2023-05-07T03:31:43;8.27;;;5.47;;
73859;SDS011;62197;51.632;13.700;2023-05-07T03:34:08;9.48;;;5.63;;
73859;SDS011;62197;51.632;13.700;2023-05-07T03:36:34;8.77;;;5.97;;
73859;SDS011;62197;51.632;13.700;2023-05-07T03:38:59;8.75;;;5.30;;
73859;SDS011;62197;51.632;13.700;2023-05-07T03:41:24;9.82;;;5.82;;
73859;SDS011;62197;51.632;13.700;2023-05-07T03:43:51;10.23;;;6.43;;
73859;SDS011;62197;51.632;13.700;2023-05-07T03:46:16;9.88;;;5.32;;
73859;SDS011;62197;51.632;13.700;2023-05-07T03:48:41;9.32;;;5.90;;
73859;SDS011;62197;51.632;13.700;2023-05-07T03:51:07;9.65;;;6.00;;
73859;SDS011;62197;51.632;13.700;2023-05-07T03:53:32;9.73;;;5.68;;
73859;SDS011;62197;51.632;13.700;2023-05-07T03:55:57;11.25;;;6.07;;
73859;SDS011;62197;51.632;13.700;2023-05-07T03:58:23;8.73;;;6.80;;
73859;SDS011;62197;51.632;13.700;2023-05-07T04:00:48;9.38;;;6.40;;
73859;SDS011;62197;51.632;13.700;2023-05-07T04:03:13;11.02;;;6.60;;
73859;SDS011;62197;51.632;13.700;2023-05-07T04:05:39;10.07;;;6.63;;
73859;SDS011;62197;51.632;13.700;2023-05-07T04:10:30;9.68;;;6.20;;
73859;SDS011;62197;51.632;13.700;2023-05-07T04:12:56;10.63;;;5.93;;
73859;SDS011;62197;51.632;13.700;2023-05-07T04:15:22;9.10;;;6.03;;
73859;SDS011;62197;51.632;13.700;2023-05-07T04:17:48;9.93;;;5.68;;
73859;SDS011;62197;51.632;13.700;2023-05-07T04:20:16;9.35;;;6.80;;
73859;SDS011;62197;51.632;13.700;2023-05-07T04:22:42;9.90;;;7.13;;
73859;SDS011;62197;51.632;13.700;2023-05-07T04:25:08;10.13;;;6.28;;
73859;SDS011;62197;51.632;13.700;2023-05-07T04:27:34;8.43;;;5.82;;
73859;SDS011;62197;51.632;13.700;2023-05-07T04:30:00;9.98;;;6.30;;
73859;SDS011;62197;51.632;13.700;2023-05-07T04:32:25;10.95;;;6.68;;
73859;SDS011;62197;51.632;13.700;2023-05-07T04:34:51;10.80;;;6.43;;
73859;SDS011;62197;51.632;13.700;2023-05-07T04:37:16;11.38;;;6.65;;
73859;SDS011;62197;51.632;13.700;2023-05-07T04:39:42;9.57;;;6.03;;
73859;SDS011;62197;51.632;13.700;2023-05-07T04:42:07;10.20;;;5.88;;
73859;SDS011;62197;51.632;13.700;2023-05-07T04:44:34;10.50;;;6.85;;
73859;SDS011;62197;51.632;13.700;2023-05-07T04:46:59;12.27;;;7.45;;
73859;SDS011;62197;51.632;13.700;2023-05-07T04:49:25;11.15;;;7.00;;
73859;SDS011;62197;51.632;13.700;2023-05-07T04:51:50;14.13;;;7.75;;
73859;SDS011;62197;51.632;13.700;2023-05-07T04:54:16;14.27;;;7.53;;
73859;SDS011;62197;51.632;13.700;2023-05-07T04:56:41;14.85;;;8.35;;
73859;SDS011;62197;51.632;13.700;2023-05-07T04:59:06;14.57;;;8.68;;
73859;SDS011;62197;51.632;13.700;2023-05-07T05:01:32;12.98;;;7.90;;
73859;SDS011;62197;51.632;13.700;2023-05-07T05:03:57;11.13;;;7.53;;
73859;SDS011;62197;51.632;13.700;2023-05-07T05:06:22;12.90;;;8.77;;
73859;SDS011;62197;51.632;13.700;2023-05-07T05:08:48;17.02;;;8.70;;
73859;SDS011;62197;51.632;13.700;2023-05-07T05:13:39;12.25;;;7.07;;
73859;SDS011;62197;51.632;13.700;2023-05-07T05:18:30;15.65;;;8.63;;
73859;SDS011;62197;51.632;13.700;2023-05-07T05:20:56;12.90;;;8.20;;
73859;SDS011;62197;51.632;13.700;2023-05-07T05:23:21;14.18;;;7.60;;
73859;SDS011;62197;51.632;13.700;2023-05-07T05:25:47;16.05;;;8.10;;
73859;SDS011;62197;51.632;13.700;2023-05-07T05:28:12;13.43;;;7.45;;
73859;SDS011;62197;51.632;13.700;2023-05-07T05:30:38;14.98;;;7.75;;
73859;SDS011;62197;51.632;13.700;2023-05-07T05:33:04;15.02;;;8.10;;
73859;SDS011;62197;51.632;13.700;2023-05-07T05:35:29;16.58;;;9.00;;
73859;SDS011;62197;51.632;13.700;2023-05-07T05:37:54;12.98;;;7.35;;
73859;SDS011;62197;51.632;13.700;2023-05-07T05:40:20;12.75;;;6.90;;
73859;SDS011;62197;51.632;13.700;2023-05-07T05:42:45;13.40;;;8.20;;
73859;SDS011;62197;51.632;13.700;2023-05-07T05:45:10;11.55;;;7.57;;
73859;SDS011;62197;51.632;13.700;2023-05-07T05:47:36;11.68;;;7.05;;
73859;SDS011;62197;51.632;13.700;2023-05-07T05:50:02;14.55;;;7.30;;
73859;SDS011;62197;51.632;13.700;2023-05-07T05:52:28;15.13;;;7.53;;
73859;SDS011;62197;51.632;13.700;2023-05-07T05:54:53;15.38;;;8.23;;
73859;SDS011;62197;51.632;13.700;2023-05-07T05:57:19;12.45;;;7.40;;
73859;SDS011;62197;51.632;13.700;2023-05-07T05:59:44;12.35;;;8.57;;
73859;SDS011;62197;51.632;13.700;2023-05-07T06:02:11;15.85;;;7.20;;
73859;SDS011;62197;51.632;13.700;2023-05-07T06:04:36;11.35;;;8.20;;
73859;SDS011;62197;51.632;13.700;2023-05-07T06:07:02;13.30;;;8.00;;
73859;SDS011;62197;51.632;13.700;2023-05-07T06:09:27;11.52;;;7.15;;
73859;SDS011;62197;51.632;13.700;2023-05-07T06:11:52;12.65;;;7.65;;
73859;SDS011;62197;51.632;13.700;2023-05-07T06:16:43;11.27;;;6.53;;
73859;SDS011;62197;51.632;13.700;2023-05-07T06:19:09;12.15;;;6.65;;
73859;SDS011;62197;51.632;13.700;2023-05-07T06:21:34;10.55;;;7.22;;
73859;SDS011;62197;51.632;13.700;2023-05-07T06:26:25;13.73;;;7.17;;
73859;SDS011;62197;51.632;13.700;2023-05-07T06:28:50;13.55;;;7.63;;
73859;SDS011;62197;51.632;13.700;2023-05-07T06:31:16;10.55;;;6.38;;
73859;SDS011;62197;51.632;13.700;2023-05-07T06:33:48;11.43;;;6.47;;
73859;SDS011;62197;51.632;13.700;2023-05-07T06:36:14;11.25;;;6.45;;
73859;SDS011;62197;51.632;13.700;2023-05-07T06:38:39;12.25;;;7.05;;
73859;SDS011;62197;51.632;13.700;2023-05-07T06:41:05;11.65;;;6.45;;
73859;SDS011;62197;51.632;13.700;2023-05-07T06:43:31;12.82;;;7.38;;
73859;SDS011;62197;51.632;13.700;2023-05-07T06:48:22;10.53;;;6.53;;
73859;SDS011;62197;51.632;13.700;2023-05-07T06:50:47;10.25;;;6.47;;
73859;SDS011;62197;51.632;13.700;2023-05-07T06:55:37;10.27;;;5.50;;
73859;SDS011;62197;51.632;13.700;2023-05-07T07:00:28;12.80;;;6.45;;
73859;SDS011;62197;51.632;13.700;2023-05-07T07:02:54;13.93;;;7.93;;
73859;SDS011;62197;51.632;13.700;2023-05-07T07:05:19;12.10;;;6.75;;
73859;SDS011;62197;51.632;13.700;2023-05-07T07:07:45;12.57;;;7.30;;
73859;SDS011;62197;51.632;13.700;2023-05-07T07:10:17;10.38;;;6.82;;
73859;SDS011;62197;51.632;13.700;2023-05-07T07:12:45;10.70;;;7.15;;
73859;SDS011;62197;51.632;13.700;2023-05-07T07:17:36;9.80;;;6.43;;
73859;SDS011;62197;51.632;13.700;2023-05-07T07:20:01;8.73;;;5.30;;
73859;SDS011;62197;51.632;13.700;2023-05-07T07:22:27;9.80;;;5.70;;
73859;SDS011;62197;51.632;13.700;2023-05-07T07:27:18;7.83;;;4.50;;
73859;SDS011;62197;51.632;13.700;2023-05-07T07:32:08;8.93;;;5.60;;
73859;SDS011;62197;51.632;13.700;2023-05-07T07:36:59;9.55;;;4.80;;
73859;SDS011;62197;51.632;13.700;2023-05-07T07:39:30;8.95;;;5.60;;
73859;SDS011;62197;51.632;13.700;2023-05-07T07:44:21;7.57;;;4.83;;
73859;SDS011;62197;51.632;13.700;2023-05-07T07:49:11;7.90;;;4.90;;
73859;SDS011;62197;51.632;13.700;2023-05-07T07:51:36;14.25;;;6.60;;
73859;SDS011;62197;51.632;13.700;2023-05-07T07:56:27;7.07;;;5.30;;
73859;SDS011;62197;51.632;13.700;2023-05-07T08:01:18;8.37;;;5.47;;
73859;SDS011;62197;51.632;13.700;2023-05-07T08:06:08;11.00;;;6.40;;
73859;SDS011;62197;51.632;13.700;2023-05-07T08:10:59;8.97;;;5.43;;
73859;SDS011;62197;51.632;13.700;2023-05-07T08:15:49;9.07;;;5.73;;
73859;SDS011;62197;51.632;13.700;2023-05-07T08:20:40;9.97;;;6.80;;
73859;SDS011;62197;51.632;13.700;2023-05-07T08:25:32;9.52;;;6.93;;
73859;SDS011;62197;51.632;13.700;2023-05-07T08:27:59;10.40;;;6.93;;
73859;SDS011;62197;51.632;13.700;2023-05-07T08:32:49;8.67;;;6.50;;
73859;SDS011;62197;51.632;13.700;2023-05-07T08:37:40;10.85;;;6.63;;
73859;SDS011;62197;51.632;13.700;2023-05-07T08:42:31;11.20;;;6.45;;
73859;SDS011;62197;51.632;13.700;2023-05-07T08:45:00;9.32;;;7.13;;
73859;SDS011;62197;51.632;13.700;2023-05-07T08:47:29;10.35;;;6.40;;
73859;SDS011;62197;51.632;13.700;2023-05-07T08:50:01;8.35;;;5.03;;
73859;SDS011;62197;51.632;13.700;2023-05-07T08:54:52;10.33;;;7.00;;
73859;SDS011;62197;51.632;13.700;2023-05-07T08:59:44;11.38;;;5.68;;
73859;SDS011;62197;51.632;13.700;2023-05-07T09:04:36;9.57;;;5.70;;
73859;SDS011;62197;51.632;13.700;2023-05-07T09:09:30;10.18;;;6.57;;
73859;SDS011;62197;51.632;13.700;2023-05-07T09:11:57;9.18;;;5.72;;
73859;SDS011;62197;51.632;13.700;2023-05-07T09:14:27;9.45;;;6.38;;
73859;SDS011;62197;51.632;13.700;2023-05-07T09:16:52;10.63;;;6.47;;
73859;SDS011;62197;51.632;13.700;2023-05-07T09:19:22;11.77;;;6.60;;
73859;SDS011;62197;51.632;13.700;2023-05-07T09:21:57;9.05;;;5.93;;
73859;SDS011;62197;51.632;13.700;2023-05-07T09:24:24;9.75;;;6.07;;
73859;SDS011;62197;51.632;13.700;2023-05-07T09:26:49;10.13;;;6.03;;
73859;SDS011;62197;51.632;13.700;2023-05-07T09:31:40;10.98;;;6.25;;
73859;SDS011;62197;51.632;13.700;2023-05-07T09:34:05;11.48;;;6.80;;
73859;SDS011;62197;51.632;13.700;2023-05-07T09:38:58;11.68;;;6.40;;
73859;SDS011;62197;51.632;13.700;2023-05-07T09:41:24;9.90;;;6.28;;
73859;SDS011;62197;51.632;13.700;2023-05-07T09:43:54;8.43;;;5.65;;
73859;SDS011;62197;51.632;13.700;2023-05-07T09:46:20;9.73;;;5.10;;
73859;SDS011;62197;51.632;13.700;2023-05-07T09:48:56;10.88;;;5.38;;
73859;SDS011;62197;51.632;13.700;2023-05-07T09:51:30;8.65;;;4.55;;
73859;SDS011;62197;51.632;13.700;2023-05-07T09:54:06;6.00;;;4.30;;
73859;SDS011;62197;51.632;13.700;2023-05-07T09:56:32;8.05;;;4.72;;
73859;SDS011;62197;51.632;13.700;2023-05-07T10:01:25;7.88;;;4.72;;
73859;SDS011;62197;51.632;13.700;2023-05-07T10:03:51;8.20;;;4.93;;
73859;SDS011;62197;51.632;13.700;2023-05-07T10:06:17;9.10;;;4.82;;
73859;SDS011;62197;51.632;13.700;2023-05-07T10:08:45;6.50;;;3.80;;
73859;SDS011;62197;51.632;13.700;2023-05-07T10:11:10;5.93;;;3.65;;
73859;SDS011;62197;51.632;13.700;2023-05-07T10:16:05;7.25;;;4.53;;
73859;SDS011;62197;51.632;13.700;2023-05-07T10:18:31;6.00;;;4.15;;
73859;SDS011;62197;51.632;13.700;2023-05-07T10:21:08;5.15;;;4.07;;
73859;SDS011;62197;51.632;13.700;2023-05-07T10:23:36;8.73;;;4.97;;
73859;SDS011;62197;51.632;13.700;2023-05-07T10:26:04;5.95;;;3.92;;
73859;SDS011;62197;51.632;13.700;2023-05-07T10:28:32;6.40;;;4.40;;
73859;SDS011;62197;51.632;13.700;2023-05-07T10:33:44;6.57;;;4.00;;
73859;SDS011;62197;51.632;13.700;2023-05-07T10:36:13;6.30;;;4.60;;
73859;SDS011;62197;51.632;13.700;2023-05-07T10:38:39;5.45;;;4.38;;
73859;SDS011;62197;51.632;13.700;2023-05-07T10:41:05;5.95;;;4.47;;
73859;SDS011;62197;51.632;13.700;2023-05-07T10:46:14;7.93;;;5.05;;
73859;SDS011;62197;51.632;13.700;2023-05-07T10:51:33;7.05;;;4.55;;
73859;SDS011;62197;51.632;13.700;2023-05-07T10:56:34;5.93;;;3.80;;
73859;SDS011;62197;51.632;13.700;2023-05-07T11:01:56;8.65;;;4.22;;
73859;SDS011;62197;51.632;13.700;2023-05-07T11:04:27;4.60;;;3.40;;
73859;SDS011;62197;51.632;13.700;2023-05-07T11:17:55;5.97;;;3.72;;
73859;SDS011;62197;51.632;13.700;2023-05-07T11:20:43;6.30;;;4.03;;
73859;SDS011;62197;51.632;13.700;2023-05-07T11:26:05;4.13;;;2.95;;
73859;SDS011;62197;51.632;13.700;2023-05-07T11:28:41;4.68;;;2.90;;
73859;SDS011;62197;51.632;13.700;2023-05-07T11:31:07;5.00;;;3.67;;
73859;SDS011;62197;51.632;13.700;2023-05-07T11:33:34;3.58;;;2.60;;
73859;SDS011;62197;51.632;13.700;2023-05-07T11:35:59;5.13;;;3.05;;
73859;SDS011;62197;51.632;13.700;2023-05-07T11:38:25;5.95;;;3.28;;
73859;SDS011;62197;51.632;13.700;2023-05-07T11:40:51;4.55;;;3.00;;
73859;SDS011;62197;51.632;13.700;2023-05-07T11:43:18;4.05;;;2.67;;
73859;SDS011;62197;51.632;13.700;2023-05-07T11:45:47;4.53;;;2.65;;
73859;SDS011;62197;51.632;13.700;2023-05-07T11:48:13;3.75;;;2.90;;
73859;SDS011;62197;51.632;13.700;2023-05-07T11:53:27;5.93;;;2.83;;
73859;SDS011;62197;51.632;13.700;2023-05-07T11:55:53;4.25;;;2.70;;
73859;SDS011;62197;51.632;13.700;2023-05-07T11:58:20;7.03;;;3.80;;
73859;SDS011;62197;51.632;13.700;2023-05-07T12:00:53;5.28;;;3.55;;
73859;SDS011;62197;51.632;13.700;2023-05-07T12:03:19;3.83;;;3.10;;
73859;SDS011;62197;51.632;13.700;2023-05-07T12:05:45;5.55;;;3.25;;
73859;SDS011;62197;51.632;13.700;2023-05-07T12:08:14;4.93;;;3.83;;
73859;SDS011;62197;51.632;13.700;2023-05-07T12:10:43;4.35;;;3.30;;
73859;SDS011;62197;51.632;13.700;2023-05-07T12:13:20;6.72;;;4.28;;
73859;SDS011;62197;51.632;13.700;2023-05-07T12:15:51;5.65;;;4.22;;
73859;SDS011;62197;51.632;13.700;2023-05-07T12:18:20;5.60;;;3.92;;
73859;SDS011;62197;51.632;13.700;2023-05-07T12:20:46;5.65;;;4.00;;
73859;SDS011;62197;51.632;13.700;2023-05-07T12:23:13;5.43;;;3.90;;
73859;SDS011;62197;51.632;13.700;2023-05-07T12:25:39;5.47;;;3.55;;
73859;SDS011;62197;51.632;13.700;2023-05-07T12:28:12;5.53;;;3.72;;
73859;SDS011;62197;51.632;13.700;2023-05-07T12:30:38;6.93;;;3.70;;
73859;SDS011;62197;51.632;13.700;2023-05-07T12:33:04;6.18;;;4.00;;
73859;SDS011;62197;51.632;13.700;2023-05-07T12:35:32;4.35;;;3.17;;
73859;SDS011;62197;51.632;13.700;2023-05-07T12:38:02;6.03;;;3.35;;
73859;SDS011;62197;51.632;13.700;2023-05-07T12:40:42;4.90;;;3.50;;
73859;SDS011;62197;51.632;13.700;2023-05-07T12:43:16;8.35;;;3.80;;
73859;SDS011;62197;51.632;13.700;2023-05-07T12:45:42;5.72;;;3.33;;
73859;SDS011;62197;51.632;13.700;2023-05-07T12:48:11;5.93;;;4.18;;
73859;SDS011;62197;51.632;13.700;2023-05-07T12:50:37;5.47;;;3.40;;
73859;SDS011;62197;51.632;13.700;2023-05-07T12:53:03;4.85;;;3.30;;
73859;SDS011;62197;51.632;13.700;2023-05-07T12:55:31;5.35;;;3.42;;
73859;SDS011;62197;51.632;13.700;2023-05-07T12:57:56;4.43;;;3.40;;
73859;SDS011;62197;51.632;13.700;2023-05-07T13:03:03;5.05;;;4.10;;
73859;SDS011;62197;51.632;13.700;2023-05-07T13:05:30;5.15;;;3.33;;
73859;SDS011;62197;51.632;13.700;2023-05-07T13:07:57;4.72;;;3.33;;
73859;SDS011;62197;51.632;13.700;2023-05-07T13:10:23;4.95;;;3.30;;
73859;SDS011;62197;51.632;13.700;2023-05-07T13:12:48;5.35;;;3.50;;
73859;SDS011;62197;51.632;13.700;2023-05-07T13:15:14;7.50;;;3.80;;
73859;SDS011;62197;51.632;13.700;2023-05-07T13:17:40;5.47;;;3.88;;
73859;SDS011;62197;51.632;13.700;2023-05-07T13:20:05;4.68;;;3.47;;
73859;SDS011;62197;51.632;13.700;2023-05-07T13:22:31;5.70;;;3.47;;
73859;SDS011;62197;51.632;13.700;2023-05-07T13:24:57;4.32;;;3.25;;
73859;SDS011;62197;51.632;13.700;2023-05-07T13:27:22;5.22;;;3.50;;
73859;SDS011;62197;51.632;13.700;2023-05-07T13:29:47;7.53;;;4.22;;
73859;SDS011;62197;51.632;13.700;2023-05-07T13:32:13;6.15;;;3.90;;
73859;SDS011;62197;51.632;13.700;2023-05-07T13:37:03;6.37;;;3.90;;
73859;SDS011;62197;51.632;13.700;2023-05-07T13:39:28;6.45;;;3.88;;
73859;SDS011;62197;51.632;13.700;2023-05-07T13:41:54;4.68;;;4.05;;
73859;SDS011;62197;51.632;13.700;2023-05-07T13:46:45;5.60;;;4.00;;
73859;SDS011;62197;51.632;13.700;2023-05-07T13:49:11;6.50;;;3.95;;
73859;SDS011;62197;51.632;13.700;2023-05-07T13:51:37;15.52;;;4.80;;
73859;SDS011;62197;51.632;13.700;2023-05-07T13:54:02;5.70;;;3.92;;
73859;SDS011;62197;51.632;13.700;2023-05-07T13:56:28;5.25;;;3.80;;
73859;SDS011;62197;51.632;13.700;2023-05-07T13:58:55;8.13;;;3.83;;
73859;SDS011;62197;51.632;13.700;2023-05-07T14:01:21;6.35;;;4.20;;
73859;SDS011;62197;51.632;13.700;2023-05-07T14:06:11;5.03;;;3.30;;
73859;SDS011;62197;51.632;13.700;2023-05-07T14:11:02;5.77;;;3.50;;
73859;SDS011;62197;51.632;13.700;2023-05-07T14:13:27;4.80;;;3.28;;
73859;SDS011;62197;51.632;13.700;2023-05-07T14:15:52;6.22;;;3.67;;
73859;SDS011;62197;51.632;13.700;2023-05-07T14:18:18;6.10;;;3.80;;
73859;SDS011;62197;51.632;13.700;2023-05-07T14:20:43;5.47;;;4.20;;
73859;SDS011;62197;51.632;13.700;2023-05-07T14:23:10;6.90;;;3.70;;
73859;SDS011;62197;51.632;13.700;2023-05-07T14:25:36;4.95;;;3.47;;
73859;SDS011;62197;51.632;13.700;2023-05-07T14:28:01;5.35;;;3.75;;
73859;SDS011;62197;51.632;13.700;2023-05-07T14:30:26;4.68;;;3.20;;
73859;SDS011;62197;51.632;13.700;2023-05-07T14:32:52;3.63;;;2.60;;
73859;SDS011;62197;51.632;13.700;2023-05-07T14:35:17;4.22;;;2.83;;
73859;SDS011;62197;51.632;13.700;2023-05-07T14:40:08;5.93;;;3.10;;
73859;SDS011;62197;51.632;13.700;2023-05-07T14:42:33;4.53;;;3.25;;
73859;SDS011;62197;51.632;13.700;2023-05-07T14:44:59;3.72;;;2.40;;
73859;SDS011;62197;51.632;13.700;2023-05-07T14:47:24;4.93;;;3.00;;
73859;SDS011;62197;51.632;13.700;2023-05-07T14:49:50;5.30;;;3.35;;
73859;SDS011;62197;51.632;13.700;2023-05-07T14:52:16;4.28;;;3.00;;
73859;SDS011;62197;51.632;13.700;2023-05-07T14:54:41;6.05;;;3.40;;
73859;SDS011;62197;51.632;13.700;2023-05-07T14:57:07;5.50;;;3.25;;
73859;SDS011;62197;51.632;13.700;2023-05-07T14:59:34;4.45;;;3.08;;
73859;SDS011;62197;51.632;13.700;2023-05-07T15:02:00;3.67;;;2.92;;
73859;SDS011;62197;51.632;13.700;2023-05-07T15:04:25;4.40;;;2.80;;
73859;SDS011;62197;51.632;13.700;2023-05-07T15:06:51;3.90;;;2.75;;
73859;SDS011;62197;51.632;13.700;2023-05-07T15:09:18;6.07;;;2.72;;
73859;SDS011;62197;51.632;13.700;2023-05-07T15:11:44;5.03;;;3.38;;
73859;SDS011;62197;51.632;13.700;2023-05-07T15:14:09;6.72;;;4.00;;
73859;SDS011;62197;51.632;13.700;2023-05-07T15:16:34;4.95;;;3.53;;
73859;SDS011;62197;51.632;13.700;2023-05-07T15:19:00;4.68;;;3.05;;
73859;SDS011;62197;51.632;13.700;2023-05-07T15:21:25;4.78;;;3.53;;
73859;SDS011;62197;51.632;13.700;2023-05-07T15:23:51;4.13;;;2.75;;
73859;SDS011;62197;51.632;13.700;2023-05-07T15:26:17;4.85;;;3.17;;
73859;SDS011;62197;51.632;13.700;2023-05-07T15:28:42;3.92;;;2.83;;
73859;SDS011;62197;51.632;13.700;2023-05-07T15:31:07;4.38;;;2.75;;
73859;SDS011;62197;51.632;13.700;2023-05-07T15:33:34;3.55;;;2.75;;
73859;SDS011;62197;51.632;13.700;2023-05-07T15:35:59;6.57;;;2.92;;
73859;SDS011;62197;51.632;13.700;2023-05-07T15:38:25;3.70;;;2.40;;
73859;SDS011;62197;51.632;13.700;2023-05-07T15:40:51;4.63;;;2.47;;
73859;SDS011;62197;51.632;13.700;2023-05-07T15:43:16;5.55;;;2.70;;
73859;SDS011;62197;51.632;13.700;2023-05-07T15:45:42;4.82;;;2.85;;
73859;SDS011;62197;51.632;13.700;2023-05-07T15:48:11;3.03;;;2.13;;
73859;SDS011;62197;51.632;13.700;2023-05-07T15:50:36;4.05;;;2.70;;
73859;SDS011;62197;51.632;13.700;2023-05-07T15:53:02;5.00;;;2.83;;
73859;SDS011;62197;51.632;13.700;2023-05-07T15:55:29;4.78;;;2.72;;
73859;SDS011;62197;51.632;13.700;2023-05-07T15:57:55;3.85;;;2.60;;
73859;SDS011;62197;51.632;13.700;2023-05-07T16:00:22;6.72;;;3.67;;
73859;SDS011;62197;51.632;13.700;2023-05-07T16:02:47;9.90;;;5.50;;
73859;SDS011;62197;51.632;13.700;2023-05-07T17:05:48;4.28;;;3.30;;
73859;SDS011;62197;51.632;13.700;2023-05-07T17:08:14;5.43;;;2.80;;
73859;SDS011;62197;51.632;13.700;2023-05-07T17:10:39;4.53;;;2.92;;
73859;SDS011;62197;51.632;13.700;2023-05-07T17:13:05;5.05;;;3.28;;
73859;SDS011;62197;51.632;13.700;2023-05-07T17:15:30;5.07;;;4.55;;
73859;SDS011;62197;51.632;13.700;2023-05-07T17:17:55;4.78;;;3.88;;
73859;SDS011;62197;51.632;13.700;2023-05-07T17:20:21;7.97;;;4.88;;
73859;SDS011;62197;51.632;13.700;2023-05-07T17:22:46;6.60;;;4.78;;
73859;SDS011;62197;51.632;13.700;2023-05-07T17:25:12;8.40;;;5.55;;
73859;SDS011;62197;51.632;13.700;2023-05-07T17:27:37;7.18;;;4.78;;
73859;SDS011;62197;51.632;13.700;2023-05-07T17:32:28;6.45;;;5.18;;
73859;SDS011;62197;51.632;13.700;2023-05-07T17:37:19;7.03;;;5.25;;
73859;SDS011;62197;51.632;13.700;2023-05-07T17:39:44;6.00;;;4.28;;
73859;SDS011;62197;51.632;13.700;2023-05-07T17:42:10;5.45;;;4.78;;
73859;SDS011;62197;51.632;13.700;2023-05-07T17:47:00;5.17;;;3.93;;
73859;SDS011;62197;51.632;13.700;2023-05-07T17:49:26;5.05;;;4.10;;
73859;SDS011;62197;51.632;13.700;2023-05-07T17:54:17;4.97;;;4.47;;
73859;SDS011;62197;51.632;13.700;2023-05-07T17:59:07;4.93;;;3.77;;
73859;SDS011;62197;51.632;13.700;2023-05-07T18:01:32;6.15;;;4.95;;
73859;SDS011;62197;51.632;13.700;2023-05-07T18:03:58;5.40;;;4.70;;
73859;SDS011;62197;51.632;13.700;2023-05-07T18:08:48;5.43;;;3.77;;